sensor_id;sensor_type;location;lat;lon;timestamp;pressure;altitude;pressure_sealevel;temperature;humidity
26937;BME280;14495;48.116;11.676;2022-10-31T00:01:46;96025.31;;;10.42;100.00
26937;BME280;14495;48.116;11.676;2022-10-31T00:04:11;96019.88;;;10.30;100.00
26937;BME280;14495;48.116;11.676;2022-10-31T00:06:36;96024.59;;;10.23;100.00
26937;BME280;14495;48.116;11.676;2022-10-31T00:09:03;96028.63;;;10.29;100.00
26937;BME280;14495;48.116;11.676;2022-10-31T00:11:29;96024.28;;;10.29;100.00
26937;BME280;14495;48.116;11.676;2022-10-31T00:13:54;96021.50;;;10.32;100.00
26937;BME280;14495;48.116;11.676;2022-10-31T00:16:23;96026.97;;;10.43;100.00
26937;BME280;14495;48.116;11.676;2022-10-31T00:18:53;96021.94;;;10.40;100.00
26937;BME280;14495;48.116;11.676;2022-10-31T00:21:19;96024.47;;;10.42;100.00
26937;BME280;14495;48.116;11.676;2022-10-31T00:23:45;96019.75;;;10.49;100.00
26937;BME280;14495;48.116;11.676;2022-10-31T00:26:10;96024.47;;;10.42;100.00
26937;BME280;14495;48.116;11.676;2022-10-31T00:28:35;96020.09;;;10.42;100.00
26937;BME280;14495;48.116;11.676;2022-10-31T00:31:07;96013.84;;;10.45;100.00
26937;BME280;14495;48.116;11.676;2022-10-31T00:33:34;96016.22;;;10.34;100.00
26937;BME280;14495;48.116;11.676;2022-10-31T00:35:59;96009.03;;;10.37;100.00
26937;BME280;14495;48.116;11.676;2022-10-31T00:38:24;96014.63;;;10.31;100.00
26937;BME280;14495;48.116;11.676;2022-10-31T00:40:50;96006.78;;;10.31;100.00
26937;BME280;14495;48.116;11.676;2022-10-31T00:43:15;96006.91;;;10.28;100.00
26937;BME280;14495;48.116;11.676;2022-10-31T00:45:42;96009.44;;;10.30;100.00
26937;BME280;14495;48.116;11.676;2022-10-31T00:48:08;96008.69;;;10.28;100.00
26937;BME280;14495;48.116;11.676;2022-10-31T00:50:33;96001.47;;;10.33;100.00
26937;BME280;14495;48.116;11.676;2022-10-31T00:52:58;96006.44;;;10.37;100.00
26937;BME280;14495;48.116;11.676;2022-10-31T00:55:23;96003.59;;;10.42;100.00
26937;BME280;14495;48.116;11.676;2022-10-31T00:57:49;96003.06;;;10.35;100.00
26937;BME280;14495;48.116;11.676;2022-10-31T01:00:14;96005.53;;;10.38;100.00
26937;BME280;14495;48.116;11.676;2022-10-31T01:02:40;96003.06;;;10.35;100.00
26937;BME280;14495;48.116;11.676;2022-10-31T01:05:05;96006.78;;;10.31;100.00
26937;BME280;14495;48.116;11.676;2022-10-31T01:07:31;96003.47;;;10.28;100.00
26937;BME280;14495;48.116;11.676;2022-10-31T01:09:56;96005.56;;;10.21;100.00
26937;BME280;14495;48.116;11.676;2022-10-31T01:12:21;96000.91;;;10.10;100.00
26937;BME280;14495;48.116;11.676;2022-10-31T01:14:47;96009.94;;;10.20;100.00
26937;BME280;14495;48.116;11.676;2022-10-31T01:17:13;96001.16;;;10.21;100.00
26937;BME280;14495;48.116;11.676;2022-10-31T01:19:38;96000.50;;;10.18;100.00
26937;BME280;14495;48.116;11.676;2022-10-31T01:22:04;96010.28;;;10.14;100.00
26937;BME280;14495;48.116;11.676;2022-10-31T01:24:29;96006.06;;;10.12;100.00
26937;BME280;14495;48.116;11.676;2022-10-31T01:26:55;96005.16;;;10.13;100.00
26937;BME280;14495;48.116;11.676;2022-10-31T01:29:20;96006.59;;;10.18;100.00
26937;BME280;14495;48.116;11.676;2022-10-31T01:31:45;96004.88;;;10.17;100.00
26937;BME280;14495;48.116;11.676;2022-10-31T01:34:16;96009.44;;;10.14;100.00
26937;BME280;14495;48.116;11.676;2022-10-31T01:36:42;96014.06;;;10.09;100.00
26937;BME280;14495;48.116;11.676;2022-10-31T01:39:13;96017.25;;;10.14;100.00
26937;BME280;14495;48.116;11.676;2022-10-31T01:41:42;96007.75;;;10.13;100.00
26937;BME280;14495;48.116;11.676;2022-10-31T01:46:55;96008.75;;;9.94;100.00
26937;BME280;14495;48.116;11.676;2022-10-31T01:49:28;96005.28;;;9.94;100.00
26937;BME280;14495;48.116;11.676;2022-10-31T01:52:00;96004.53;;;9.92;100.00
26937;BME280;14495;48.116;11.676;2022-10-31T01:54:35;96000.56;;;10.00;100.00
26937;BME280;14495;48.116;11.676;2022-10-31T01:57:05;95999.81;;;9.98;100.00
26937;BME280;14495;48.116;11.676;2022-10-31T01:59:34;95999.47;;;10.04;100.00
26937;BME280;14495;48.116;11.676;2022-10-31T02:02:01;96005.31;;;10.10;100.00
26937;BME280;14495;48.116;11.676;2022-10-31T02:04:27;96001.41;;;10.01;100.00
26937;BME280;14495;48.116;11.676;2022-10-31T02:07:00;96002.84;;;10.06;100.00
26937;BME280;14495;48.116;11.676;2022-10-31T02:09:29;95997.81;;;10.03;100.00
26937;BME280;14495;48.116;11.676;2022-10-31T02:11:57;95998.13;;;9.97;100.00
26937;BME280;14495;48.116;11.676;2022-10-31T02:14:25;95995.09;;;9.89;100.00
26937;BME280;14495;48.116;11.676;2022-10-31T02:16:51;95995.25;;;9.86;100.00
26937;BME280;14495;48.116;11.676;2022-10-31T02:22:32;96001.06;;;9.91;100.00
26937;BME280;14495;48.116;11.676;2022-10-31T02:30:41;95998.88;;;9.83;100.00
26937;BME280;14495;48.116;11.676;2022-10-31T02:33:31;96002.16;;;9.87;100.00
26937;BME280;14495;48.116;11.676;2022-10-31T02:36:04;96007.38;;;9.87;100.00
26937;BME280;14495;48.116;11.676;2022-10-31T02:46:27;96008.69;;;9.62;100.00
26937;BME280;14495;48.116;11.676;2022-10-31T02:49:02;96006.09;;;9.62;100.00
26937;BME280;14495;48.116;11.676;2022-10-31T02:51:30;96005.22;;;9.62;100.00
26937;BME280;14495;48.116;11.676;2022-10-31T02:53:56;96004.13;;;9.66;100.00
26937;BME280;14495;48.116;11.676;2022-10-31T02:56:21;96000.53;;;9.68;100.00
26937;BME280;14495;48.116;11.676;2022-10-31T02:58:53;96004.31;;;9.63;100.00
26937;BME280;14495;48.116;11.676;2022-10-31T03:01:43;95999.50;;;9.55;100.00
26937;BME280;14495;48.116;11.676;2022-10-31T03:09:31;95998.75;;;9.36;100.00
26937;BME280;14495;48.116;11.676;2022-10-31T03:12:13;96001.66;;;9.47;100.00
26937;BME280;14495;48.116;11.676;2022-10-31T03:14:43;96005.97;;;9.48;100.00
26937;BME280;14495;48.116;11.676;2022-10-31T03:17:25;96002.59;;;9.46;100.00
26937;BME280;14495;48.116;11.676;2022-10-31T03:19:56;96005.56;;;9.38;100.00
26937;BME280;14495;48.116;11.676;2022-10-31T03:22:26;96004.59;;;9.41;100.00
26937;BME280;14495;48.116;11.676;2022-10-31T03:24:53;96005.13;;;9.30;100.00
26937;BME280;14495;48.116;11.676;2022-10-31T03:27:24;96006.28;;;9.24;100.00
26937;BME280;14495;48.116;11.676;2022-10-31T03:29:52;96001.69;;;9.29;100.00
26937;BME280;14495;48.116;11.676;2022-10-31T03:32:27;96001.41;;;9.18;100.00
26937;BME280;14495;48.116;11.676;2022-10-31T03:34:57;96005.53;;;9.22;100.00
26937;BME280;14495;48.116;11.676;2022-10-31T03:37:26;96004.75;;;9.20;100.00
26937;BME280;14495;48.116;11.676;2022-10-31T03:39:53;96011.66;;;9.21;100.00
26937;BME280;14495;48.116;11.676;2022-10-31T03:42:25;96003.69;;;9.24;100.00
26937;BME280;14495;48.116;11.676;2022-10-31T03:47:33;96008.81;;;9.08;100.00
26937;BME280;14495;48.116;11.676;2022-10-31T03:49:59;96003.38;;;9.13;100.00
26937;BME280;14495;48.116;11.676;2022-10-31T03:52:28;96002.44;;;9.14;100.00
26937;BME280;14495;48.116;11.676;2022-10-31T03:55:46;96001.09;;;9.07;100.00
26937;BME280;14495;48.116;11.676;2022-10-31T03:58:10;96009.28;;;8.99;100.00
26937;BME280;14495;48.116;11.676;2022-10-31T04:00:40;96006.91;;;8.95;100.00
26937;BME280;14495;48.116;11.676;2022-10-31T04:03:12;96003.53;;;8.93;100.00
26937;BME280;14495;48.116;11.676;2022-10-31T04:05:41;95998.47;;;8.89;100.00
26937;BME280;14495;48.116;11.676;2022-10-31T04:08:12;96003.38;;;8.96;100.00
26937;BME280;14495;48.116;11.676;2022-10-31T04:10:41;96005.22;;;8.94;100.00
26937;BME280;14495;48.116;11.676;2022-10-31T04:13:11;96005.06;;;8.97;100.00
26937;BME280;14495;48.116;11.676;2022-10-31T04:15:39;96013.66;;;8.81;100.00
26937;BME280;14495;48.116;11.676;2022-10-31T04:18:06;96011.50;;;8.72;100.00
26937;BME280;14495;48.116;11.676;2022-10-31T04:20:34;96012.34;;;8.73;100.00
26937;BME280;14495;48.116;11.676;2022-10-31T04:23:00;96019.84;;;8.61;100.00
26937;BME280;14495;48.116;11.676;2022-10-31T04:25:26;96017.28;;;8.60;100.00
26937;BME280;14495;48.116;11.676;2022-10-31T04:27:52;96014.09;;;8.72;100.00
26937;BME280;14495;48.116;11.676;2022-10-31T04:30:17;96019.84;;;8.61;100.00
26937;BME280;14495;48.116;11.676;2022-10-31T04:32:42;96019.97;;;8.58;100.00
26937;BME280;14495;48.116;11.676;2022-10-31T04:35:08;96017.28;;;8.60;100.00
26937;BME280;14495;48.116;11.676;2022-10-31T04:37:33;96022.19;;;8.66;100.00
26937;BME280;14495;48.116;11.676;2022-10-31T04:39:58;96018.81;;;8.64;100.00
26937;BME280;14495;48.116;11.676;2022-10-31T04:42:23;96024.47;;;8.55;100.00
26937;BME280;14495;48.116;11.676;2022-10-31T04:44:49;96032.91;;;8.60;100.00
26937;BME280;14495;48.116;11.676;2022-10-31T04:47:14;96025.75;;;8.65;100.00
26937;BME280;14495;48.116;11.676;2022-10-31T04:49:39;96022.94;;;8.50;100.00
26937;BME280;14495;48.116;11.676;2022-10-31T04:52:04;96025.84;;;8.44;100.00
26937;BME280;14495;48.116;11.676;2022-10-31T04:54:30;96014.91;;;8.36;100.00
26937;BME280;14495;48.116;11.676;2022-10-31T04:56:55;96021.94;;;8.34;100.00
26937;BME280;14495;48.116;11.676;2022-10-31T04:59:20;96019.91;;;8.41;100.00
26937;BME280;14495;48.116;11.676;2022-10-31T05:01:46;96023.94;;;8.48;100.00
26937;BME280;14495;48.116;11.676;2022-10-31T05:04:11;96023.78;;;8.32;100.00
26937;BME280;14495;48.116;11.676;2022-10-31T05:06:36;96016.97;;;8.29;100.00
26937;BME280;14495;48.116;11.676;2022-10-31T05:09:02;96015.91;;;8.33;100.00
26937;BME280;14495;48.116;11.676;2022-10-31T05:11:27;96015.66;;;8.38;100.00
26937;BME280;14495;48.116;11.676;2022-10-31T05:13:52;96013.16;;;8.37;100.00
26937;BME280;14495;48.116;11.676;2022-10-31T05:16:17;96013.81;;;8.23;100.00
26937;BME280;14495;48.116;11.676;2022-10-31T05:18:43;96013.22;;;8.16;100.00
26937;BME280;14495;48.116;11.676;2022-10-31T05:21:08;96011.44;;;8.18;100.00
26937;BME280;14495;48.116;11.676;2022-10-31T05:23:33;96015.63;;;8.21;100.00
26937;BME280;14495;48.116;11.676;2022-10-31T05:25:59;96006.22;;;8.18;100.00
26937;BME280;14495;48.116;11.676;2022-10-31T05:28:24;96009.09;;;8.12;100.00
26937;BME280;14495;48.116;11.676;2022-10-31T05:30:49;96002.16;;;8.12;100.00
26937;BME280;14495;48.116;11.676;2022-10-31T05:33:15;96008.97;;;7.96;100.00
26937;BME280;14495;48.116;11.676;2022-10-31T05:35:40;96005.25;;;8.02;100.00
26937;BME280;14495;48.116;11.676;2022-10-31T05:38:05;96003.59;;;7.99;100.00
26937;BME280;14495;48.116;11.676;2022-10-31T05:40:30;96003.53;;;8.01;100.00
26937;BME280;14495;48.116;11.676;2022-10-31T05:42:56;96005.94;;;8.05;100.00
26937;BME280;14495;48.116;11.676;2022-10-31T05:45:24;96009.25;;;8.09;100.00
26937;BME280;14495;48.116;11.676;2022-10-31T05:47:57;95999.19;;;8.20;100.00
26937;BME280;14495;48.116;11.676;2022-10-31T05:50:23;95999.19;;;8.20;100.00
26937;BME280;14495;48.116;11.676;2022-10-31T05:52:56;96007.47;;;8.09;100.00
26937;BME280;14495;48.116;11.676;2022-10-31T05:55:22;96004.22;;;8.23;100.00
26937;BME280;14495;48.116;11.676;2022-10-31T05:57:47;95998.19;;;8.23;100.00
26937;BME280;14495;48.116;11.676;2022-10-31T06:00:13;96004.09;;;8.07;100.00
26937;BME280;14495;48.116;11.676;2022-10-31T06:02:38;96002.16;;;8.12;100.00
26937;BME280;14495;48.116;11.676;2022-10-31T06:05:03;96005.38;;;7.99;100.00
26937;BME280;14495;48.116;11.676;2022-10-31T06:07:35;96000.44;;;8.11;100.00
26937;BME280;14495;48.116;11.676;2022-10-31T06:10:03;96002.69;;;8.19;100.00
26937;BME280;14495;48.116;11.676;2022-10-31T06:12:29;96004.66;;;8.14;100.00
26937;BME280;14495;48.116;11.676;2022-10-31T06:14:54;96003.19;;;8.08;100.00
26937;BME280;14495;48.116;11.676;2022-10-31T06:17:20;96003.03;;;8.11;100.00
26937;BME280;14495;48.116;11.676;2022-10-31T06:19:45;96011.97;;;8.06;100.00
26937;BME280;14495;48.116;11.676;2022-10-31T06:22:11;96000.00;;;8.21;100.00
26937;BME280;14495;48.116;11.676;2022-10-31T06:24:37;96003.09;;;8.29;100.00
26937;BME280;14495;48.116;11.676;2022-10-31T06:27:02;96004.66;;;8.33;100.00
26937;BME280;14495;48.116;11.676;2022-10-31T06:29:28;96009.28;;;8.26;100.00
26937;BME280;14495;48.116;11.676;2022-10-31T06:31:53;96010.13;;;8.27;100.00
26937;BME280;14495;48.116;11.676;2022-10-31T06:34:18;96005.78;;;8.27;100.00
26937;BME280;14495;48.116;11.676;2022-10-31T06:36:45;96016.84;;;8.51;100.00
26937;BME280;14495;48.116;11.676;2022-10-31T06:39:11;96013.84;;;8.59;100.00
26937;BME280;14495;48.116;11.676;2022-10-31T06:41:36;96010.38;;;8.59;100.00
26937;BME280;14495;48.116;11.676;2022-10-31T06:44:02;96007.34;;;8.68;100.00
26937;BME280;14495;48.116;11.676;2022-10-31T06:46:27;96014.22;;;8.51;100.00
26937;BME280;14495;48.116;11.676;2022-10-31T06:48:52;96006.72;;;8.63;100.00
26937;BME280;14495;48.116;11.676;2022-10-31T06:51:17;96004.72;;;8.68;100.00
26937;BME280;14495;48.116;11.676;2022-10-31T06:53:43;96003.16;;;8.83;100.00
26937;BME280;14495;48.116;11.676;2022-10-31T06:56:08;96011.44;;;8.91;100.00
26937;BME280;14495;48.116;11.676;2022-10-31T06:58:33;96013.75;;;9.15;100.00
26937;BME280;14495;48.116;11.676;2022-10-31T07:01:00;96015.34;;;9.35;100.00
26937;BME280;14495;48.116;11.676;2022-10-31T07:03:25;96014.31;;;9.37;100.00
26937;BME280;14495;48.116;11.676;2022-10-31T07:05:51;96012.38;;;9.58;100.00
26937;BME280;14495;48.116;11.676;2022-10-31T07:08:16;96012.91;;;9.65;100.00
26937;BME280;14495;48.116;11.676;2022-10-31T07:10:42;96010.50;;;9.78;100.00
26937;BME280;14495;48.116;11.676;2022-10-31T07:13:13;96017.53;;;10.09;100.00
26937;BME280;14495;48.116;11.676;2022-10-31T07:15:40;96015.16;;;10.20;100.00
26937;BME280;14495;48.116;11.676;2022-10-31T07:18:08;96013.09;;;10.43;100.00
26937;BME280;14495;48.116;11.676;2022-10-31T07:20:34;96021.50;;;10.64;100.00
26937;BME280;14495;48.116;11.676;2022-10-31T07:22:59;96011.56;;;10.55;100.00
26937;BME280;14495;48.116;11.676;2022-10-31T07:25:25;96014.47;;;10.80;100.00
26937;BME280;14495;48.116;11.676;2022-10-31T07:27:51;96013.06;;;11.05;100.00
26937;BME280;14495;48.116;11.676;2022-10-31T07:30:16;96015.38;;;11.26;100.00
26937;BME280;14495;48.116;11.676;2022-10-31T07:32:45;96013.53;;;11.42;100.00
26937;BME280;14495;48.116;11.676;2022-10-31T07:35:13;96012.03;;;11.52;100.00
26937;BME280;14495;48.116;11.676;2022-10-31T07:37:39;96013.28;;;11.75;100.00
26937;BME280;14495;48.116;11.676;2022-10-31T07:40:06;96011.13;;;12.11;100.00
26937;BME280;14495;48.116;11.676;2022-10-31T07:42:39;96013.38;;;12.59;100.00
26937;BME280;14495;48.116;11.676;2022-10-31T07:45:05;96009.25;;;12.82;100.00
26937;BME280;14495;48.116;11.676;2022-10-31T07:47:38;96012.06;;;13.06;100.00
26937;BME280;14495;48.116;11.676;2022-10-31T07:50:04;96010.19;;;13.61;100.00
26937;BME280;14495;48.116;11.676;2022-10-31T07:52:29;96010.28;;;13.72;100.00
26937;BME280;14495;48.116;11.676;2022-10-31T07:54:55;96004.38;;;14.07;100.00
26937;BME280;14495;48.116;11.676;2022-10-31T07:57:20;96008.44;;;14.24;100.00
26937;BME280;14495;48.116;11.676;2022-10-31T07:59:45;96005.94;;;14.59;100.00
26937;BME280;14495;48.116;11.676;2022-10-31T08:02:10;95996.44;;;14.69;100.00
26937;BME280;14495;48.116;11.676;2022-10-31T08:04:36;95996.97;;;14.86;100.00
26937;BME280;14495;48.116;11.676;2022-10-31T08:07:01;95999.06;;;14.94;100.00
26937;BME280;14495;48.116;11.676;2022-10-31T08:09:26;95998.88;;;14.84;100.00
26937;BME280;14495;48.116;11.676;2022-10-31T08:11:52;95996.59;;;15.03;100.00
26937;BME280;14495;48.116;11.676;2022-10-31T08:14:18;95992.16;;;15.51;100.00
26937;BME280;14495;48.116;11.676;2022-10-31T08:16:43;95991.66;;;15.92;100.00
26937;BME280;14495;48.116;11.676;2022-10-31T08:19:08;95982.44;;;15.87;100.00
26937;BME280;14495;48.116;11.676;2022-10-31T08:21:34;95973.81;;;16.07;100.00
26937;BME280;14495;48.116;11.676;2022-10-31T08:23:59;95975.09;;;16.24;100.00
26937;BME280;14495;48.116;11.676;2022-10-31T08:26:24;95976.94;;;16.56;100.00
26937;BME280;14495;48.116;11.676;2022-10-31T08:28:50;95963.97;;;17.08;100.00
26937;BME280;14495;48.116;11.676;2022-10-31T08:31:15;95967.78;;;18.09;100.00
26937;BME280;14495;48.116;11.676;2022-10-31T08:33:40;95958.63;;;18.92;93.05
26937;BME280;14495;48.116;11.676;2022-10-31T08:36:06;95966.72;;;19.20;89.67
26937;BME280;14495;48.116;11.676;2022-10-31T08:38:31;95964.97;;;20.43;74.72
26937;BME280;14495;48.116;11.676;2022-10-31T08:40:56;95952.25;;;21.10;70.16
26937;BME280;14495;48.116;11.676;2022-10-31T08:43:21;95957.66;;;21.62;64.77
26937;BME280;14495;48.116;11.676;2022-10-31T08:45:48;95952.66;;;21.59;64.51
26937;BME280;14495;48.116;11.676;2022-10-31T08:48:15;95952.47;;;21.17;66.90
26937;BME280;14495;48.116;11.676;2022-10-31T08:50:42;95951.41;;;21.72;65.62
26937;BME280;14495;48.116;11.676;2022-10-31T08:55:39;95941.34;;;22.61;60.75
26937;BME280;14495;48.116;11.676;2022-10-31T08:58:07;95936.63;;;23.30;59.02
26937;BME280;14495;48.116;11.676;2022-10-31T09:00:34;95947.31;;;23.38;56.15
26937;BME280;14495;48.116;11.676;2022-10-31T09:03:05;95939.59;;;22.86;57.85
26937;BME280;14495;48.116;11.676;2022-10-31T09:05:30;95937.88;;;24.00;54.58
26937;BME280;14495;48.116;11.676;2022-10-31T09:08:01;95926.63;;;24.92;51.63
26937;BME280;14495;48.116;11.676;2022-10-31T09:10:27;95928.50;;;24.60;52.36
26937;BME280;14495;48.116;11.676;2022-10-31T09:13:00;95925.78;;;24.68;53.25
26937;BME280;14495;48.116;11.676;2022-10-31T09:15:27;95914.59;;;24.64;53.32
26937;BME280;14495;48.116;11.676;2022-10-31T09:17:53;95918.09;;;25.57;50.10
26937;BME280;14495;48.116;11.676;2022-10-31T09:20:19;95911.91;;;24.96;50.20
26937;BME280;14495;48.116;11.676;2022-10-31T09:22:45;95918.91;;;25.20;51.05
26937;BME280;14495;48.116;11.676;2022-10-31T09:25:11;95908.22;;;24.97;51.36
26937;BME280;14495;48.116;11.676;2022-10-31T09:27:36;95916.50;;;25.02;50.70
26937;BME280;14495;48.116;11.676;2022-10-31T09:30:03;95911.53;;;23.97;54.16
26937;BME280;14495;48.116;11.676;2022-10-31T09:32:28;95907.91;;;23.81;51.84
26937;BME280;14495;48.116;11.676;2022-10-31T09:34:54;95912.22;;;23.90;52.84
26937;BME280;14495;48.116;11.676;2022-10-31T09:37:19;95907.53;;;23.92;52.47
26937;BME280;14495;48.116;11.676;2022-10-31T09:39:45;95908.66;;;23.18;52.47
26937;BME280;14495;48.116;11.676;2022-10-31T09:45:18;95902.22;;;23.92;50.95
26937;BME280;14495;48.116;11.676;2022-10-31T09:50:24;95892.50;;;24.70;49.59
26937;BME280;14495;48.116;11.676;2022-10-31T09:53:00;95897.25;;;23.81;49.60
26937;BME280;14495;48.116;11.676;2022-10-31T09:55:41;95890.34;;;24.03;49.62
26937;BME280;14495;48.116;11.676;2022-10-31T09:58:39;95895.81;;;23.38;51.09
26937;BME280;14495;48.116;11.676;2022-10-31T10:01:06;95886.94;;;23.62;50.41
26937;BME280;14495;48.116;11.676;2022-10-31T10:03:40;95895.25;;;23.75;50.93
26937;BME280;14495;48.116;11.676;2022-10-31T10:06:09;95886.41;;;24.62;49.09
26937;BME280;14495;48.116;11.676;2022-10-31T10:08:36;95875.78;;;24.77;48.15
26937;BME280;14495;48.116;11.676;2022-10-31T10:11:32;95884.38;;;24.33;49.46
26937;BME280;14495;48.116;11.676;2022-10-31T10:32:44;95871.31;;;23.01;52.15
26937;BME280;14495;48.116;11.676;2022-10-31T10:35:19;95875.59;;;22.61;51.09
26937;BME280;14495;48.116;11.676;2022-10-31T10:37:46;95862.72;;;22.32;52.15
26937;BME280;14495;48.116;11.676;2022-10-31T10:40:17;95863.94;;;22.03;53.29
26937;BME280;14495;48.116;11.676;2022-10-31T10:42:50;95868.16;;;22.14;53.54
26937;BME280;14495;48.116;11.676;2022-10-31T10:45:37;95866.09;;;21.65;52.61
26937;BME280;14495;48.116;11.676;2022-10-31T10:48:39;95873.91;;;21.14;54.56
26937;BME280;14495;48.116;11.676;2022-10-31T10:51:15;95859.00;;;20.95;54.93
26937;BME280;14495;48.116;11.676;2022-10-31T10:54:02;95861.56;;;20.51;56.60
26937;BME280;14495;48.116;11.676;2022-10-31T10:57:07;95864.06;;;20.53;57.61
26937;BME280;14495;48.116;11.676;2022-10-31T10:59:36;95861.03;;;20.47;58.43
26937;BME280;14495;48.116;11.676;2022-10-31T11:02:03;95854.19;;;20.27;59.24
26937;BME280;14495;48.116;11.676;2022-10-31T11:04:33;95849.13;;;20.06;60.73
26937;BME280;14495;48.116;11.676;2022-10-31T11:07:04;95846.66;;;19.77;60.46
26937;BME280;14495;48.116;11.676;2022-10-31T11:09:31;95842.75;;;19.71;61.33
26937;BME280;14495;48.116;11.676;2022-10-31T11:11:57;95839.94;;;19.82;61.60
26937;BME280;14495;48.116;11.676;2022-10-31T11:14:23;95842.03;;;19.79;62.40
26937;BME280;14495;48.116;11.676;2022-10-31T11:16:54;95837.31;;;20.00;62.25
26937;BME280;14495;48.116;11.676;2022-10-31T11:21:46;95822.34;;;19.81;62.98
26937;BME280;14495;48.116;11.676;2022-10-31T11:24:18;95826.19;;;19.59;64.17
26937;BME280;14495;48.116;11.676;2022-10-31T11:26:46;95822.03;;;19.47;65.04
26937;BME280;14495;48.116;11.676;2022-10-31T11:29:25;95820.19;;;19.57;65.57
26937;BME280;14495;48.116;11.676;2022-10-31T11:31:56;95829.44;;;20.08;64.89
26937;BME280;14495;48.116;11.676;2022-10-31T11:39:41;95810.78;;;21.08;60.92
26937;BME280;14495;48.116;11.676;2022-10-31T11:42:06;95817.16;;;21.84;58.74
26937;BME280;14495;48.116;11.676;2022-10-31T11:44:32;95818.81;;;21.77;59.77
26937;BME280;14495;48.116;11.676;2022-10-31T11:47:00;95808.88;;;21.95;58.56
26937;BME280;14495;48.116;11.676;2022-10-31T11:49:39;95805.63;;;22.18;57.71
26937;BME280;14495;48.116;11.676;2022-10-31T11:52:08;95802.84;;;22.52;56.84
26937;BME280;14495;48.116;11.676;2022-10-31T11:54:54;95798.38;;;22.77;55.89
26937;BME280;14495;48.116;11.676;2022-10-31T11:57:42;95793.22;;;22.51;57.14
26937;BME280;14495;48.116;11.676;2022-10-31T12:00:23;95791.53;;;22.42;57.75
26937;BME280;14495;48.116;11.676;2022-10-31T12:02:50;95789.03;;;22.82;55.42
26937;BME280;14495;48.116;11.676;2022-10-31T12:05:23;95787.72;;;23.10;55.23
26937;BME280;14495;48.116;11.676;2022-10-31T12:07:50;95780.63;;;23.42;53.93
26937;BME280;14495;48.116;11.676;2022-10-31T12:10:18;95785.03;;;22.94;54.26
26937;BME280;14495;48.116;11.676;2022-10-31T12:12:56;95781.91;;;22.66;55.07
26937;BME280;14495;48.116;11.676;2022-10-31T12:15:35;95774.72;;;22.50;57.37
26937;BME280;14495;48.116;11.676;2022-10-31T12:21:10;95775.56;;;21.75;60.24
26937;BME280;14495;48.116;11.676;2022-10-31T12:24:08;95773.03;;;21.31;61.30
26937;BME280;14495;48.116;11.676;2022-10-31T12:29:26;95764.19;;;20.70;64.94
26937;BME280;14495;48.116;11.676;2022-10-31T12:37:53;95746.38;;;20.26;69.35
26937;BME280;14495;48.116;11.676;2022-10-31T12:46:02;95740.75;;;19.93;74.55
26937;BME280;14495;48.116;11.676;2022-10-31T12:48:56;95743.72;;;19.90;75.75
26937;BME280;14495;48.116;11.676;2022-10-31T12:57:23;95732.06;;;20.19;77.67
26937;BME280;14495;48.116;11.676;2022-10-31T12:59:50;95725.69;;;20.12;76.86
26937;BME280;14495;48.116;11.676;2022-10-31T13:04:51;95717.97;;;20.00;78.29
26937;BME280;14495;48.116;11.676;2022-10-31T13:07:26;95714.88;;;20.23;78.87
26937;BME280;14495;48.116;11.676;2022-10-31T13:10:16;95714.53;;;20.26;76.10
26937;BME280;14495;48.116;11.676;2022-10-31T13:12:43;95709.66;;;20.39;76.46
26937;BME280;14495;48.116;11.676;2022-10-31T13:15:19;95704.09;;;20.06;78.73
26937;BME280;14495;48.116;11.676;2022-10-31T13:17:49;95700.06;;;20.20;78.74
26937;BME280;14495;48.116;11.676;2022-10-31T13:20:25;95705.66;;;20.79;76.08
26937;BME280;14495;48.116;11.676;2022-10-31T13:23:11;95693.44;;;20.42;77.21
26937;BME280;14495;48.116;11.676;2022-10-31T13:25:43;95700.06;;;20.38;74.83
26937;BME280;14495;48.116;11.676;2022-10-31T13:28:38;95695.13;;;20.43;76.21
26937;BME280;14495;48.116;11.676;2022-10-31T13:31:08;95695.00;;;20.27;74.72
26937;BME280;14495;48.116;11.676;2022-10-31T13:39:26;95684.28;;;20.19;77.66
26937;BME280;14495;48.116;11.676;2022-10-31T13:42:27;95684.25;;;20.11;77.93
26937;BME280;14495;48.116;11.676;2022-10-31T13:45:17;95675.38;;;19.84;78.75
26937;BME280;14495;48.116;11.676;2022-10-31T13:47:43;95674.84;;;19.80;81.93
26937;BME280;14495;48.116;11.676;2022-10-31T13:52:42;95670.47;;;19.89;90.76
26937;BME280;14495;48.116;11.676;2022-10-31T13:55:34;95672.91;;;19.82;95.21
26937;BME280;14495;48.116;11.676;2022-10-31T13:58:04;95668.31;;;19.75;97.62
26937;BME280;14495;48.116;11.676;2022-10-31T14:00:29;95671.97;;;19.74;100.00
26937;BME280;14495;48.116;11.676;2022-10-31T14:02:59;95671.38;;;19.80;100.00
26937;BME280;14495;48.116;11.676;2022-10-31T14:05:33;95672.94;;;19.55;100.00
26937;BME280;14495;48.116;11.676;2022-10-31T14:08:04;95671.72;;;19.67;100.00
26937;BME280;14495;48.116;11.676;2022-10-31T14:10:46;95671.06;;;19.37;100.00
26937;BME280;14495;48.116;11.676;2022-10-31T14:13:32;95661.63;;;19.35;100.00
26937;BME280;14495;48.116;11.676;2022-10-31T14:16:20;95661.69;;;19.25;100.00
26937;BME280;14495;48.116;11.676;2022-10-31T14:19:07;95653.28;;;19.29;100.00
26937;BME280;14495;48.116;11.676;2022-10-31T14:21:43;95658.53;;;19.11;100.00
26937;BME280;14495;48.116;11.676;2022-10-31T14:24:15;95664.47;;;19.23;100.00
26937;BME280;14495;48.116;11.676;2022-10-31T14:31:44;95645.28;;;19.57;100.00
26937;BME280;14495;48.116;11.676;2022-10-31T14:34:39;95643.47;;;19.58;100.00
26937;BME280;14495;48.116;11.676;2022-10-31T14:37:17;95647.16;;;19.47;100.00
26937;BME280;14495;48.116;11.676;2022-10-31T14:39:57;95639.06;;;19.48;100.00
26937;BME280;14495;48.116;11.676;2022-10-31T14:42:39;95635.88;;;19.45;100.00